Time;durP1;ratioP1;P1;durP2;ratioP2;P2;SDS_P1;SDS_P2;PMS_P1;PMS_P2;Temp;Humidity;BMP_temperature;BMP_pressure;BME280_temperature;BME280_humidity;BME280_pressure;Samples;Min_cycle;Max_cycle;Signal;HPM_P1;HPM_P2
2023/01/21 00:01:16;;;;;;;25.70;13.30;;;;;;;;;;5101231;28;20043;-85
2023/01/21 00:03:42;;;;;;;25.55;13.88;;;;;;;;;;5119002;28;20368;-84
2023/01/21 00:06:08;;;;;;;22.65;13.13;;;;;;;;;;5118443;28;20032;-83
2023/01/21 00:08:34;;;;;;;26.67;13.25;;;;;;;;;;5118836;28;20046;-83
2023/01/21 00:11:08;;;;;;;27.73;13.68;;;;;;;;;;5106051;28;20577;-82
2023/01/21 00:13:34;;;;;;;21.90;12.45;;;;;;;;;;5080181;28;20040;-83
2023/01/21 00:16:00;;;;;;;24.45;13.77;;;;;;;;;;5097756;28;20411;-84
2023/01/21 00:18:26;;;;;;;23.10;12.73;;;;;;;;;;5097613;28;20515;-85
2023/01/21 00:20:51;;;;;;;24.55;13.70;;;;;;;;;;5079477;28;20040;-83
2023/01/21 00:23:17;;;;;;;25.65;14.00;;;;;;;;;;5078897;28;20036;-82
2023/01/21 00:25:43;;;;;;;26.23;13.38;;;;;;;;;;5098080;28;20040;-83
2023/01/21 00:28:08;;;;;;;23.52;12.88;;;;;;;;;;5098003;28;20492;-83
2023/01/21 00:30:35;;;;;;;25.63;13.10;;;;;;;;;;5078913;28;20453;-84
2023/01/21 00:33:02;;;;;;;26.95;13.80;;;;;;;;;;5078281;28;20133;-82
2023/01/21 00:35:27;;;;;;;28.38;13.73;;;;;;;;;;5078799;28;20032;-83
2023/01/21 00:37:53;;;;;;;27.60;14.15;;;;;;;;;;5105545;28;20452;-84
2023/01/21 00:40:19;;;;;;;23.38;12.95;;;;;;;;;;5099337;28;20032;-82
2023/01/21 00:42:44;;;;;;;23.88;12.73;;;;;;;;;;5099241;28;20047;-83
2023/01/21 00:45:10;;;;;;;25.15;12.82;;;;;;;;;;5098760;28;20032;-85
2023/01/21 00:47:35;;;;;;;24.80;12.70;;;;;;;;;;5081852;28;20032;-82
2023/01/21 00:50:01;;;;;;;26.15;13.38;;;;;;;;;;5082298;28;20039;-84
2023/01/21 00:52:26;;;;;;;24.98;13.05;;;;;;;;;;5082380;28;20036;-84
2023/01/21 00:54:52;;;;;;;26.60;13.50;;;;;;;;;;5099822;28;20412;-83
2023/01/21 00:57:17;;;;;;;25.42;13.38;;;;;;;;;;5103307;28;20392;-81
2023/01/21 00:59:43;;;;;;;27.48;13.73;;;;;;;;;;5098189;28;20039;-83
2023/01/21 01:02:09;;;;;;;27.60;13.00;;;;;;;;;;5097743;28;20518;-83
2023/01/21 01:04:35;;;;;;;29.40;13.68;;;;;;;;;;5079269;28;20032;-82
2023/01/21 01:07:00;;;;;;;26.80;14.10;;;;;;;;;;5078704;28;20036;-83
2023/01/21 01:09:26;;;;;;;26.77;13.23;;;;;;;;;;5098026;28;20541;-83
2023/01/21 01:11:51;;;;;;;25.70;13.63;;;;;;;;;;5097294;28;20028;-84
2023/01/21 01:14:17;;;;;;;26.60;13.80;;;;;;;;;;5078981;28;20511;-83
2023/01/21 01:16:42;;;;;;;26.23;14.05;;;;;;;;;;5097449;28;20032;-85
2023/01/21 01:19:09;;;;;;;28.25;14.38;;;;;;;;;;5079162;28;20396;-82
2023/01/21 01:21:35;;;;;;;31.70;14.93;;;;;;;;;;5105447;28;20044;-83
2023/01/21 01:24:02;;;;;;;28.65;13.90;;;;;;;;;;5080032;28;20063;-82
2023/01/21 01:26:28;;;;;;;26.63;14.00;;;;;;;;;;5081763;28;20027;-83
2023/01/21 01:28:53;;;;;;;27.58;13.90;;;;;;;;;;5100816;28;20039;-84
2023/01/21 01:31:19;;;;;;;27.13;13.60;;;;;;;;;;5119235;28;20027;-82
2023/01/21 01:33:46;;;;;;;25.38;12.93;;;;;;;;;;5119946;28;20027;-83
2023/01/21 01:36:17;;;;;;;29.50;14.57;;;;;;;;;;5101807;28;20031;-81
2023/01/21 01:38:44;;;;;;;27.73;14.13;;;;;;;;;;5120693;28;20089;-82
2023/01/21 01:41:19;;;;;;;27.15;13.57;;;;;;;;;;5121657;28;20494;-81
2023/01/21 01:43:59;;;;;;;28.88;13.52;;;;;;;;;;5122666;28;20036;-83
2023/01/21 01:46:34;;;;;;;25.42;12.88;;;;;;;;;;5097639;28;20035;-83
2023/01/21 01:49:14;;;;;;;24.95;13.07;;;;;;;;;;5097017;28;20031;-83
2023/01/21 01:51:53;;;;;;;26.55;14.10;;;;;;;;;;5114279;28;20062;-81
2023/01/21 01:54:23;;;;;;;26.60;13.32;;;;;;;;;;5102980;28;20046;-85
2023/01/21 01:56:54;;;;;;;25.52;14.05;;;;;;;;;;5100473;28;20061;-84
2023/01/21 01:59:20;;;;;;;27.90;14.77;;;;;;;;;;5099005;28;20032;-83
2023/01/21 02:01:45;;;;;;;28.95;14.45;;;;;;;;;;5103946;28;20069;-83
2023/01/21 02:04:15;;;;;;;26.55;14.15;;;;;;;;;;5079186;28;20027;-84
2023/01/21 02:06:41;;;;;;;32.00;16.00;;;;;;;;;;5096903;28;20142;-84
2023/01/21 02:09:07;;;;;;;34.15;15.40;;;;;;;;;;5097877;28;20044;-84
2023/01/21 02:11:34;;;;;;;32.33;15.10;;;;;;;;;;5096807;28;20055;-84
2023/01/21 02:14:00;;;;;;;31.70;15.73;;;;;;;;;;5097679;28;20060;-84
2023/01/21 02:16:50;;;;;;;29.75;15.52;;;;;;;;;;5079457;28;20035;-85
2023/01/21 02:19:15;;;;;;;27.17;14.13;;;;;;;;;;5096215;28;20028;-83
2023/01/21 02:21:44;;;;;;;28.70;14.65;;;;;;;;;;5097235;28;20036;-84
2023/01/21 02:24:22;;;;;;;25.58;13.27;;;;;;;;;;5078195;28;20495;-83
2023/01/21 02:26:56;;;;;;;25.83;14.00;;;;;;;;;;5096677;28;20496;-82
2023/01/21 02:29:44;;;;;;;26.92;14.65;;;;;;;;;;5096503;28;20040;-82
2023/01/21 02:32:35;;;;;;;29.08;14.13;;;;;;;;;;5078841;28;20032;-84
2023/01/21 02:35:47;;;;;;;26.33;13.98;;;;;;;;;;5078250;28;20047;-82
2023/01/21 02:38:28;;;;;;;28.83;13.90;;;;;;;;;;5050503;28;20090;-83
2023/01/21 02:41:17;;;;;;;25.17;13.68;;;;;;;;;;5097021;28;20047;-83
2023/01/21 02:44:04;;;;;;;27.92;13.35;;;;;;;;;;5068673;28;20451;-84
2023/01/21 02:46:53;;;;;;;25.98;14.23;;;;;;;;;;5098439;28;20046;-83
2023/01/21 02:49:57;;;;;;;26.83;13.90;;;;;;;;;;5097984;28;20088;-82
2023/01/21 02:52:24;;;;;;;26.33;13.30;;;;;;;;;;5019221;28;20417;-82
2023/01/21 02:54:52;;;;;;;23.98;13.73;;;;;;;;;;5019356;28;20041;-82
2023/01/21 02:57:39;;;;;;;28.48;13.88;;;;;;;;;;5067616;28;20040;-85
2023/01/21 03:00:24;;;;;;;22.50;12.93;;;;;;;;;;5082403;28;20040;-85
2023/01/21 03:03:05;;;;;;;25.35;13.70;;;;;;;;;;5100159;28;20043;-82
2023/01/21 03:05:55;;;;;;;26.15;13.60;;;;;;;;;;5102233;28;20103;-81
2023/01/21 03:08:31;;;;;;;25.17;13.07;;;;;;;;;;5093427;28;20040;-82
2023/01/21 03:11:08;;;;;;;27.10;13.88;;;;;;;;;;5074387;28;20038;-82
2023/01/21 03:19:19;;;;;;;21.95;11.80;;;;;;;;;;5096352;28;20036;-82
2023/01/21 03:21:46;;;;;;;20.75;11.45;;;;;;;;;;5077927;28;20020;-83
2023/01/21 03:24:13;;;;;;;22.23;11.70;;;;;;;;;;5099222;28;20047;-83
2023/01/21 03:26:44;;;;;;;24.42;12.40;;;;;;;;;;5099733;28;20028;-84
2023/01/21 03:29:19;;;;;;;20.65;11.68;;;;;;;;;;5100276;28;20036;-83
2023/01/21 03:31:50;;;;;;;23.05;11.65;;;;;;;;;;5082062;28;20036;-83
2023/01/21 03:34:17;;;;;;;23.48;11.85;;;;;;;;;;5100809;28;20056;-85
2023/01/21 03:36:57;;;;;;;24.15;11.05;;;;;;;;;;5082074;28;20239;-82
2023/01/21 03:39:36;;;;;;;23.05;11.55;;;;;;;;;;5082837;28;20118;-83
2023/01/21 03:42:02;;;;;;;21.83;11.65;;;;;;;;;;5082722;28;20031;-82
2023/01/21 03:44:27;;;;;;;20.35;11.05;;;;;;;;;;5100532;28;20108;-83
2023/01/21 03:47:31;;;;;;;21.65;11.65;;;;;;;;;;5100796;28;20040;-83
2023/01/21 03:50:04;;;;;;;;;;;;;;;;;;5100565;28;20047;-82
2023/01/21 03:52:30;;;;;;;23.13;11.45;;;;;;;;;;5101362;28;19911;-83
2023/01/21 03:54:55;;;;;;;22.50;10.90;;;;;;;;;;5101837;28;20081;-83
2023/01/21 03:57:21;;;;;;;20.95;10.65;;;;;;;;;;5101788;28;20036;-82
2023/01/21 03:59:46;;;;;;;21.92;11.05;;;;;;;;;;5084440;28;20036;-83
2023/01/21 04:02:12;;;;;;;20.92;12.13;;;;;;;;;;5103133;28;20549;-83
2023/01/21 04:04:37;;;;;;;23.38;12.30;;;;;;;;;;5102083;28;20031;-84
2023/01/21 04:07:03;;;;;;;23.27;11.65;;;;;;;;;;5102400;28;20043;-84
2023/01/21 04:09:29;;;;;;;26.05;11.57;;;;;;;;;;5103861;28;20036;-84
2023/01/21 04:11:54;;;;;;;18.27;10.07;;;;;;;;;;5104187;28;20502;-83
2023/01/21 04:14:20;;;;;;;19.88;10.52;;;;;;;;;;5062644;28;20032;-82
2023/01/21 04:16:45;;;;;;;20.48;10.45;;;;;;;;;;5097362;28;20059;-83
2023/01/21 04:19:11;;;;;;;20.30;10.75;;;;;;;;;;5096724;28;20114;-83
2023/01/21 04:21:36;;;;;;;18.05;9.65;;;;;;;;;;5096201;28;20038;-83
2023/01/21 04:24:02;;;;;;;20.70;9.52;;;;;;;;;;5095937;28;20089;-80
2023/01/21 04:26:27;;;;;;;18.53;10.00;;;;;;;;;;5100919;22;20032;-81
2023/01/21 04:28:53;;;;;;;18.58;10.68;;;;;;;;;;5113623;28;20105;-82
2023/01/21 04:31:18;;;;;;;21.23;10.63;;;;;;;;;;5115254;28;20039;-83
2023/01/21 04:33:44;;;;;;;20.35;10.10;;;;;;;;;;5114786;28;20042;-82
2023/01/21 04:36:09;;;;;;;20.33;10.90;;;;;;;;;;5115232;28;20110;-83
2023/01/21 04:38:35;;;;;;;23.80;11.60;;;;;;;;;;5118532;28;20039;-83
2023/01/21 04:41:00;;;;;;;21.73;11.18;;;;;;;;;;5096804;28;20028;-82
2023/01/21 04:43:26;;;;;;;21.17;10.68;;;;;;;;;;5096925;28;20515;-83
2023/01/21 04:45:51;;;;;;;26.08;11.15;;;;;;;;;;5096661;28;20415;-83
2023/01/21 04:48:17;;;;;;;23.35;11.00;;;;;;;;;;5096598;28;20122;-83
2023/01/21 04:50:42;;;;;;;22.75;11.02;;;;;;;;;;5114993;28;20032;-83
2023/01/21 04:53:08;;;;;;;18.73;10.32;;;;;;;;;;5115302;28;20566;-83
2023/01/21 04:55:33;;;;;;;20.50;10.65;;;;;;;;;;5114740;28;20088;-84
2023/01/21 04:57:59;;;;;;;18.58;10.10;;;;;;;;;;5114877;28;20035;-83
2023/01/21 05:00:24;;;;;;;18.80;10.10;;;;;;;;;;5115262;28;20032;-83
2023/01/21 05:02:50;;;;;;;20.67;9.95;;;;;;;;;;5114904;28;20119;-82
2023/01/21 05:05:15;;;;;;;16.88;9.57;;;;;;;;;;5096200;28;20039;-82
2023/01/21 05:07:41;;;;;;;16.92;8.60;;;;;;;;;;5114421;28;20051;-82
2023/01/21 05:10:08;;;;;;;20.38;9.30;;;;;;;;;;5114915;28;20023;-82
2023/01/21 05:12:33;;;;;;;16.77;8.93;;;;;;;;;;5115010;28;20047;-82
2023/01/21 05:14:59;;;;;;;21.95;9.68;;;;;;;;;;5114733;28;20062;-82
2023/01/21 05:17:25;;;;;;;19.33;9.60;;;;;;;;;;5114506;28;20061;-82
2023/01/21 05:19:50;;;;;;;18.58;8.80;;;;;;;;;;5096665;28;20502;-82
2023/01/21 05:22:16;;;;;;;17.67;8.95;;;;;;;;;;5096304;28;20078;-82
2023/01/21 05:24:42;;;;;;;16.10;8.40;;;;;;;;;;5096121;28;20075;-82
2023/01/21 05:27:07;;;;;;;17.30;8.05;;;;;;;;;;5114331;28;20028;-82
2023/01/21 05:29:33;;;;;;;19.20;8.50;;;;;;;;;;5114717;28;20130;-82
2023/01/21 05:31:58;;;;;;;18.40;8.55;;;;;;;;;;5114511;28;20031;-82
2023/01/21 05:34:24;;;;;;;17.23;8.50;;;;;;;;;;5114528;28;20085;-82
2023/01/21 05:36:50;;;;;;;13.13;7.93;;;;;;;;;;5114411;28;20040;-82
2023/01/21 05:39:15;;;;;;;20.48;8.57;;;;;;;;;;5114631;28;20464;-82
2023/01/21 05:41:41;;;;;;;20.33;8.68;;;;;;;;;;5114533;28;20038;-81
2023/01/21 05:44:08;;;;;;;18.30;8.35;;;;;;;;;;5095884;28;20475;-81
2023/01/21 05:46:33;;;;;;;14.95;8.35;;;;;;;;;;5114108;28;20044;-82
2023/01/21 05:48:59;;;;;;;18.45;8.63;;;;;;;;;;5114660;28;20034;-82
2023/01/21 05:51:24;;;;;;;18.35;8.48;;;;;;;;;;5114627;28;20035;-81
2023/01/21 05:53:50;;;;;;;17.80;8.55;;;;;;;;;;5114452;28;20028;-81
2023/01/21 05:56:15;;;;;;;16.92;8.48;;;;;;;;;;5114260;28;20031;-81
2023/01/21 05:58:41;;;;;;;19.15;8.93;;;;;;;;;;5114320;28;20036;-82
2023/01/21 06:01:06;;;;;;;17.85;8.75;;;;;;;;;;5114510;28;20035;-82
2023/01/21 06:03:31;;;;;;;15.98;8.32;;;;;;;;;;5096309;28;20031;-81
2023/01/21 06:05:57;;;;;;;15.98;8.38;;;;;;;;;;5113817;28;20261;-81
2023/01/21 06:08:22;;;;;;;17.27;8.70;;;;;;;;;;5114685;28;20074;-81
2023/01/21 06:10:48;;;;;;;17.52;8.68;;;;;;;;;;5096032;28;20027;-82
2023/01/21 06:13:15;;;;;;;18.98;9.70;;;;;;;;;;5114178;28;20407;-82
2023/01/21 06:15:40;;;;;;;16.50;8.27;;;;;;;;;;5095999;28;20032;-82
2023/01/21 06:18:06;;;;;;;16.55;9.05;;;;;;;;;;5113794;28;20031;-81
2023/01/21 06:20:32;;;;;;;18.25;9.20;;;;;;;;;;5114566;28;20075;-81
2023/01/21 06:23:00;;;;;;;17.00;9.25;;;;;;;;;;5095817;28;20070;-81
2023/01/21 06:25:26;;;;;;;21.45;9.57;;;;;;;;;;5113451;28;20496;-81
2023/01/21 06:27:55;;;;;;;17.80;8.77;;;;;;;;;;5114089;28;20035;-81
2023/01/21 06:30:21;;;;;;;16.02;8.35;;;;;;;;;;5114447;28;20030;-81
2023/01/21 06:32:47;;;;;;;17.90;8.50;;;;;;;;;;5113773;28;20035;-81
2023/01/21 06:35:12;;;;;;;16.35;8.18;;;;;;;;;;5095550;28;20084;-81
2023/01/21 06:37:38;;;;;;;17.58;8.18;;;;;;;;;;5095974;28;20032;-81
2023/01/21 06:40:04;;;;;;;17.42;7.88;;;;;;;;;;5095816;28;20071;-81
2023/01/21 06:42:30;;;;;;;17.17;8.25;;;;;;;;;;5095463;28;20498;-81
2023/01/21 06:44:56;;;;;;;20.42;8.85;;;;;;;;;;5111945;28;20027;-80
2023/01/21 06:47:21;;;;;;;15.98;8.52;;;;;;;;;;5074327;28;20519;-82
2023/01/21 06:49:47;;;;;;;16.23;8.07;;;;;;;;;;5106015;28;20400;-82
2023/01/21 06:52:12;;;;;;;16.23;8.38;;;;;;;;;;5114433;28;20039;-81
2023/01/21 06:54:37;;;;;;;18.38;9.25;;;;;;;;;;5112803;28;20399;-82
2023/01/21 06:57:03;;;;;;;16.80;9.23;;;;;;;;;;5114216;28;20122;-81
2023/01/21 06:59:28;;;;;;;20.33;9.90;;;;;;;;;;5117794;28;20036;-80
2023/01/21 07:01:57;;;;;;;19.08;9.75;;;;;;;;;;5118152;28;20479;-80
2023/01/21 07:04:24;;;;;;;19.17;9.38;;;;;;;;;;5083181;28;20036;-80
2023/01/21 07:06:49;;;;;;;19.58;9.15;;;;;;;;;;5117896;28;20031;-81
2023/01/21 07:09:15;;;;;;;17.30;9.13;;;;;;;;;;5099128;28;20034;-80
2023/01/21 07:11:40;;;;;;;17.40;9.05;;;;;;;;;;5099084;28;20388;-81
2023/01/21 07:14:06;;;;;;;19.25;10.02;;;;;;;;;;5117250;28;20441;-81
2023/01/21 07:16:31;;;;;;;21.45;10.63;;;;;;;;;;5099335;28;20119;-81
2023/01/21 07:18:56;;;;;;;18.77;9.70;;;;;;;;;;5118044;28;20038;-81
2023/01/21 07:21:23;;;;;;;20.50;10.48;;;;;;;;;;5118170;28;20031;-83
2023/01/21 07:23:51;;;;;;;20.70;9.38;;;;;;;;;;5100487;28;20075;-82
2023/01/21 07:26:17;;;;;;;19.60;9.60;;;;;;;;;;5117931;28;20035;-81
2023/01/21 07:28:42;;;;;;;22.33;10.10;;;;;;;;;;5082763;28;20027;-81
2023/01/21 07:31:08;;;;;;;18.75;9.35;;;;;;;;;;5117643;28;20410;-82
2023/01/21 07:33:33;;;;;;;19.05;10.02;;;;;;;;;;5099209;28;20040;-82
2023/01/21 07:35:59;;;;;;;24.10;10.85;;;;;;;;;;5117642;28;20079;-82
2023/01/21 07:38:24;;;;;;;20.08;10.18;;;;;;;;;;5117502;28;20483;-82
2023/01/21 07:40:50;;;;;;;20.88;9.98;;;;;;;;;;5099362;28;20044;-83
2023/01/21 07:43:16;;;;;;;21.35;10.25;;;;;;;;;;5099633;28;20032;-81
2023/01/21 07:45:42;;;;;;;19.45;9.80;;;;;;;;;;5099163;28;20085;-81
2023/01/21 07:48:08;;;;;;;22.98;9.95;;;;;;;;;;5098687;28;20039;-81
2023/01/21 07:50:34;;;;;;;20.15;9.05;;;;;;;;;;5099044;28;20040;-81
2023/01/21 07:53:00;;;;;;;18.08;9.68;;;;;;;;;;5117292;28;20038;-81
2023/01/21 07:55:27;;;;;;;19.13;9.63;;;;;;;;;;5116684;28;20503;-81
2023/01/21 07:57:54;;;;;;;20.48;9.63;;;;;;;;;;5116098;28;20027;-81
2023/01/21 08:00:20;;;;;;;18.95;9.43;;;;;;;;;;5117430;28;20060;-82
2023/01/21 08:02:49;;;;;;;16.55;9.45;;;;;;;;;;5116773;28;20127;-81
2023/01/21 08:05:14;;;;;;;20.48;9.85;;;;;;;;;;5116166;28;20032;-81
2023/01/21 08:07:40;;;;;;;19.58;9.02;;;;;;;;;;5097820;28;20123;-81
2023/01/21 08:10:06;;;;;;;23.25;9.55;;;;;;;;;;5115807;28;20088;-81
2023/01/21 08:12:31;;;;;;;20.70;9.60;;;;;;;;;;5097998;28;20020;-80
2023/01/21 08:14:57;;;;;;;19.50;9.82;;;;;;;;;;5116074;28;20662;-81
2023/01/21 08:17:22;;;;;;;22.98;10.05;;;;;;;;;;5116344;28;20038;-81
2023/01/21 08:19:48;;;;;;;19.58;9.95;;;;;;;;;;5098133;28;20391;-82
2023/01/21 08:22:13;;;;;;;20.35;10.45;;;;;;;;;;5117580;28;20145;-82
2023/01/21 08:24:38;;;;;;;19.58;10.13;;;;;;;;;;5098139;28;20069;-81
2023/01/21 08:27:04;;;;;;;19.38;10.00;;;;;;;;;;5116596;28;20031;-82
2023/01/21 08:29:29;;;;;;;18.25;9.85;;;;;;;;;;5116246;28;20043;-81
2023/01/21 08:31:56;;;;;;;21.30;9.65;;;;;;;;;;5116478;28;20031;-81
2023/01/21 08:34:22;;;;;;;19.73;10.10;;;;;;;;;;5116231;28;20039;-81
2023/01/21 08:36:47;;;;;;;20.58;10.15;;;;;;;;;;5116529;28;20396;-80
2023/01/21 08:39:14;;;;;;;20.50;9.52;;;;;;;;;;5098894;28;20111;-82
2023/01/21 08:41:40;;;;;;;18.80;10.23;;;;;;;;;;5099433;28;20028;-84
2023/01/21 08:44:06;;;;;;;20.30;10.00;;;;;;;;;;5099285;28;20118;-80
2023/01/21 08:46:32;;;;;;;18.95;9.10;;;;;;;;;;5098624;28;20031;-80
2023/01/21 08:48:57;;;;;;;15.88;8.95;;;;;;;;;;5116114;28;20030;-80
2023/01/21 08:51:23;;;;;;;18.55;8.82;;;;;;;;;;5098035;28;20043;-80
2023/01/21 08:53:49;;;;;;;18.13;9.75;;;;;;;;;;5116861;28;20445;-80
2023/01/21 08:56:15;;;;;;;18.20;8.95;;;;;;;;;;5097554;28;20117;-80
2023/01/21 08:58:40;;;;;;;18.35;9.75;;;;;;;;;;5097780;28;20035;-80
2023/01/21 09:01:08;;;;;;;18.40;9.50;;;;;;;;;;5100141;28;20036;-81
2023/01/21 09:03:34;;;;;;;17.10;9.38;;;;;;;;;;5118110;28;20040;-80
2023/01/21 09:06:01;;;;;;;21.27;10.30;;;;;;;;;;5098046;28;20042;-80
2023/01/21 09:08:27;;;;;;;19.25;9.95;;;;;;;;;;5116912;28;20036;-80
2023/01/21 09:11:00;;;;;;;18.80;9.77;;;;;;;;;;5116396;28;20106;-80
2023/01/21 09:13:28;;;;;;;20.63;10.25;;;;;;;;;;5116197;28;20491;-80
2023/01/21 09:15:54;;;;;;;18.88;9.55;;;;;;;;;;5118577;28;20050;-80
2023/01/21 09:18:20;;;;;;;16.95;9.43;;;;;;;;;;5117158;28;20027;-80
2023/01/21 09:20:45;;;;;;;19.42;9.52;;;;;;;;;;5115401;28;20038;-81
2023/01/21 09:23:22;;;;;;;19.38;9.85;;;;;;;;;;5116350;28;20027;-81
2023/01/21 09:26:26;;;;;;;21.42;9.98;;;;;;;;;;5097661;28;20032;-80
2023/01/21 09:28:54;;;;;;;19.63;10.25;;;;;;;;;;5093671;28;20044;-80
2023/01/21 09:31:20;;;;;;;17.63;9.27;;;;;;;;;;5115862;28;20095;-80
2023/01/21 09:33:48;;;;;;;21.92;10.98;;;;;;;;;;5116279;28;20047;-80
2023/01/21 09:36:23;;;;;;;21.10;9.88;;;;;;;;;;5115899;28;20036;-80
2023/01/21 09:38:50;;;;;;;22.23;9.93;;;;;;;;;;5080748;28;20470;-80
2023/01/21 09:41:21;;;;;;;20.65;9.90;;;;;;;;;;5115541;28;20115;-80
2023/01/21 09:44:27;;;;;;;22.02;10.23;;;;;;;;;;5097071;28;20043;-82
2023/01/21 09:47:02;;;;;;;20.48;10.80;;;;;;;;;;5075143;28;20051;-80
2023/01/21 09:49:32;;;;;;;21.27;10.57;;;;;;;;;;5115117;28;20036;-82
2023/01/21 09:52:25;;;;;;;20.10;10.10;;;;;;;;;;5115580;28;20065;-82
2023/01/21 09:54:51;;;;;;;22.70;10.77;;;;;;;;;;5115215;28;20118;-82
2023/01/21 09:57:35;;;;;;;23.63;10.93;;;;;;;;;;5097639;28;20039;-82
2023/01/21 10:00:15;;;;;;;18.08;9.85;;;;;;;;;;5116160;28;20116;-81
2023/01/21 10:03:14;;;;;;;21.88;10.02;;;;;;;;;;5115659;28;20038;-82
2023/01/21 10:05:48;;;;;;;18.00;9.05;;;;;;;;;;5114059;28;20039;-80
2023/01/21 10:08:17;;;;;;;19.02;9.73;;;;;;;;;;5114123;28;20043;-80
2023/01/21 10:11:09;;;;;;;23.10;10.45;;;;;;;;;;5115335;28;20046;-81
2023/01/21 10:14:12;;;;;;;21.00;10.48;;;;;;;;;;5080439;28;20101;-80
2023/01/21 10:16:59;;;;;;;18.30;9.98;;;;;;;;;;5096658;28;20146;-82
2023/01/21 10:19:38;;;;;;;20.42;9.45;;;;;;;;;;5115573;28;20534;-82
2023/01/21 10:22:24;;;;;;;15.32;8.65;;;;;;;;;;5114741;28;20176;-81
2023/01/21 10:25:00;;;;;;;19.95;9.88;;;;;;;;;;5114485;28;20036;-82
2023/01/21 10:27:28;;;;;;;19.90;10.10;;;;;;;;;;5128372;22;21076;-83
2023/01/21 10:30:17;;;;;;;18.70;10.07;;;;;;;;;;5099303;28;20043;-85
2023/01/21 10:32:44;;;;;;;21.30;9.52;;;;;;;;;;5117915;28;20040;-83
2023/01/21 10:35:19;;;;;;;21.02;9.95;;;;;;;;;;5100444;28;20055;-83
2023/01/21 10:38:00;;;;;;;18.15;10.43;;;;;;;;;;5122805;28;20039;-82
2023/01/21 10:40:44;;;;;;;19.77;10.43;;;;;;;;;;5080746;28;20038;-84
2023/01/21 10:43:26;;;;;;;22.35;10.18;;;;;;;;;;5115665;28;20035;-83
2023/01/21 10:46:20;;;;;;;20.23;9.57;;;;;;;;;;5115167;28;20507;-84
2023/01/21 10:49:08;;;;;;;;;;;;;;;;;;5115226;28;20063;-81
2023/01/21 10:51:44;;;;;;;19.80;9.35;;;;;;;;;;5114842;28;19919;-83
2023/01/21 10:54:47;;;;;;;17.02;9.70;;;;;;;;;;5113735;28;20042;-84
2023/01/21 10:57:54;;;;;;;20.80;10.38;;;;;;;;;;5094792;28;20035;-83
2023/01/21 11:00:24;;;;;;;21.88;10.13;;;;;;;;;;5068640;28;20078;-83
2023/01/21 11:02:54;;;;;;;18.77;10.02;;;;;;;;;;5116209;28;20059;-83
2023/01/21 11:05:22;;;;;;;17.92;9.82;;;;;;;;;;5115748;28;20036;-84
2023/01/21 11:07:48;;;;;;;20.08;10.60;;;;;;;;;;5115495;28;20084;-83
2023/01/21 11:10:20;;;;;;;18.92;10.65;;;;;;;;;;5116041;28;20052;-84
2023/01/21 11:12:47;;;;;;;20.95;9.63;;;;;;;;;;5116120;28;20106;-84
2023/01/21 11:15:15;;;;;;;22.13;10.02;;;;;;;;;;5098049;28;20024;-83
2023/01/21 11:17:44;;;;;;;19.77;10.10;;;;;;;;;;5117375;28;20039;-84
2023/01/21 11:20:38;;;;;;;21.48;10.50;;;;;;;;;;5115226;28;20487;-84
2023/01/21 11:23:04;;;;;;;;;;;;;;;;;;5097718;28;20035;-81
2023/01/21 11:25:40;;;;;;;18.70;8.77;;;;;;;;;;5115296;28;19942;-83
2023/01/21 11:28:22;;;;;;;21.90;10.27;;;;;;;;;;5114159;28;20496;-84
2023/01/21 11:30:48;;;;;;;17.83;9.25;;;;;;;;;;5115155;28;20055;-85
2023/01/21 11:33:25;;;;;;;20.88;9.45;;;;;;;;;;5115228;28;20020;-86
2023/01/21 11:35:52;;;;;;;17.50;9.55;;;;;;;;;;5096829;28;20038;-85
2023/01/21 11:38:34;;;;;;;18.00;8.98;;;;;;;;;;5115637;28;20047;-85
2023/01/21 11:41:16;;;;;;;19.00;10.00;;;;;;;;;;5116486;28;20036;-85
2023/01/21 11:43:47;;;;;;;22.02;10.00;;;;;;;;;;5108306;28;20054;-85
2023/01/21 11:46:27;;;;;;;18.05;9.82;;;;;;;;;;5104351;28;20050;-85
2023/01/21 11:48:54;;;;;;;23.65;10.82;;;;;;;;;;5065033;28;20033;-85
2023/01/21 11:51:19;;;;;;;19.67;9.93;;;;;;;;;;5083030;28;20031;-82
2023/01/21 11:53:45;;;;;;;18.92;9.60;;;;;;;;;;5081879;28;20032;-86
2023/01/21 11:56:13;;;;;;;19.98;10.45;;;;;;;;;;5081877;28;20052;-84
2023/01/21 11:58:41;;;;;;;20.08;10.13;;;;;;;;;;5078983;28;20036;-82
2023/01/21 12:01:17;;;;;;;19.77;9.75;;;;;;;;;;5063275;28;20040;-85
2023/01/21 12:03:48;;;;;;;17.15;9.32;;;;;;;;;;5048626;28;20036;-87
2023/01/21 12:06:20;;;;;;;18.35;9.77;;;;;;;;;;5082857;28;20115;-85
2023/01/21 12:08:50;;;;;;;19.42;10.07;;;;;;;;;;5065677;28;20029;-86
2023/01/21 12:11:22;;;;;;;20.08;9.88;;;;;;;;;;5078830;28;20405;-85
2023/01/21 12:14:07;;;;;;;19.20;9.02;;;;;;;;;;5075730;28;20036;-85
2023/01/21 12:16:36;;;;;;;22.10;10.32;;;;;;;;;;5059334;28;20100;-83
2023/01/21 12:19:19;;;;;;;21.50;10.98;;;;;;;;;;5083751;28;20550;-83
2023/01/21 12:22:03;;;;;;;20.35;10.73;;;;;;;;;;5079858;28;20029;-83
2023/01/21 12:24:53;;;;;;;21.15;10.40;;;;;;;;;;5061096;28;20033;-83
2023/01/21 12:27:21;;;;;;;25.13;11.05;;;;;;;;;;5078735;28;20036;-86
2023/01/21 12:30:02;;;;;;;19.58;10.65;;;;;;;;;;5079204;28;20033;-86
2023/01/21 12:32:37;;;;;;;21.15;10.77;;;;;;;;;;5060526;28;20079;-85
2023/01/21 12:35:34;;;;;;;19.05;10.70;;;;;;;;;;5059704;28;20071;-83
2023/01/21 12:38:05;;;;;;;19.08;10.18;;;;;;;;;;5077573;28;20049;-85
2023/01/21 12:40:36;;;;;;;20.48;10.57;;;;;;;;;;5077309;28;20047;-85
2023/01/21 12:43:19;;;;;;;21.60;10.70;;;;;;;;;;5078029;28;20033;-85
2023/01/21 12:45:50;;;;;;;;;;;;;;;;;;5079733;28;20480;-82
2023/01/21 12:48:30;;;;;;;17.30;9.50;;;;;;;;;;5080867;28;20421;-85
2023/01/21 12:51:39;;;;;;;18.35;9.60;;;;;;;;;;5060569;28;20515;-84
2023/01/21 12:54:24;;;;;;;17.80;9.32;;;;;;;;;;5021184;28;20036;-84
2023/01/21 12:57:08;;;;;;;17.55;9.82;;;;;;;;;;5078040;28;20032;-83
2023/01/21 13:00:00;;;;;;;18.70;9.77;;;;;;;;;;5059495;28;20052;-85
2023/01/21 13:03:02;;;;;;;20.13;10.00;;;;;;;;;;5048764;28;20421;-85
2023/01/21 13:05:54;;;;;;;19.55;10.52;;;;;;;;;;5045020;28;20078;-85
2023/01/21 13:08:47;;;;;;;18.52;10.05;;;;;;;;;;5076354;28;20036;-85
2023/01/21 13:11:15;;;;;;;19.65;10.18;;;;;;;;;;5058812;28;20086;-87
2023/01/21 13:13:49;;;;;;;20.48;10.70;;;;;;;;;;5075907;28;20098;-85
2023/01/21 13:16:14;;;;;;;23.15;9.80;;;;;;;;;;5075193;28;20211;-86
2023/01/21 13:18:51;;;;;;;22.73;11.05;;;;;;;;;;5075761;28;20115;-85
2023/01/21 13:21:24;;;;;;;19.00;9.73;;;;;;;;;;5075042;28;20082;-85
2023/01/21 13:23:53;;;;;;;;;;;;;;;;;;5057374;28;20382;-82
2023/01/21 13:26:27;;;;;;;17.80;9.65;;;;;;;;;;5075209;28;19916;-84
2023/01/21 13:29:18;;;;;;;19.63;9.80;;;;;;;;;;5075342;28;20419;-84
2023/01/21 13:32:13;;;;;;;22.52;10.43;;;;;;;;;;5073948;28;20443;-86
2023/01/21 13:35:11;;;;;;;22.88;11.35;;;;;;;;;;5078884;28;20092;-84
2023/01/21 13:37:43;;;;;;;20.48;11.00;;;;;;;;;;5043000;28;20140;-86
2023/01/21 13:40:36;;;;;;;17.70;9.98;;;;;;;;;;5076029;28;20036;-87
2023/01/21 13:43:20;;;;;;;20.08;10.30;;;;;;;;;;5075000;28;20115;-86
2023/01/21 13:45:55;;;;;;;;;;;;;;;;;;5075223;28;20040;-86
2023/01/21 13:48:58;;;;;;;21.65;9.90;;;;;;;;;;5074628;28;19935;-85
2023/01/21 13:51:24;;;;;;;19.25;9.80;;;;;;;;;;5066120;28;20055;-87
2023/01/21 13:54:13;;;;;;;19.90;10.23;;;;;;;;;;5057900;28;20039;-86
2023/01/21 13:57:00;;;;;;;21.17;11.20;;;;;;;;;;5073689;28;20147;-86
2023/01/21 13:59:40;;;;;;;24.45;10.73;;;;;;;;;;5075498;28;20056;-85
2023/01/21 14:02:12;;;;;;;23.45;10.63;;;;;;;;;;5075303;28;20082;-86
2023/01/21 14:04:44;;;;;;;22.05;10.60;;;;;;;;;;5057932;28;20036;-87
2023/01/21 14:07:30;;;;;;;21.67;11.35;;;;;;;;;;5057791;28;20058;-87
2023/01/21 14:10:04;;;;;;;22.40;11.13;;;;;;;;;;5076650;28;20478;-89
2023/01/21 14:12:54;;;;;;;20.55;10.70;;;;;;;;;;5058334;28;20044;-88
2023/01/21 14:15:47;;;;;;;22.77;11.25;;;;;;;;;;5076307;28;20040;-87
2023/01/21 14:18:19;;;;;;;21.73;10.40;;;;;;;;;;5057129;28;20028;-88
2023/01/21 14:21:02;;;;;;;19.10;10.48;;;;;;;;;;5057966;28;20028;-85
2023/01/21 14:23:27;;;;;;;22.73;11.05;;;;;;;;;;5075658;28;20063;-88
2023/01/21 14:26:18;;;;;;;18.27;9.98;;;;;;;;;;5057857;28;20036;-86
2023/01/21 14:29:02;;;;;;;20.08;9.90;;;;;;;;;;5057211;28;20154;-85
2023/01/21 14:31:40;;;;;;;21.48;10.48;;;;;;;;;;5074882;28;20193;-85
2023/01/21 14:34:31;;;;;;;39.58;16.92;;;;;;;;;;5074845;28;20063;-85
2023/01/21 14:37:06;;;;;;;27.30;12.70;;;;;;;;;;5056514;28;20450;-86
2023/01/21 14:39:54;;;;;;;90.53;33.42;;;;;;;;;;5039792;28;20559;-87
2023/01/21 14:42:39;;;;;;;72.15;24.52;;;;;;;;;;5075162;28;20037;-86
2023/01/21 14:45:07;;;;;;;32.90;15.93;;;;;;;;;;5075053;28;20028;-86
2023/01/21 14:47:43;;;;;;;27.63;13.23;;;;;;;;;;5056527;28;20032;-86
2023/01/21 14:50:09;;;;;;;27.92;13.20;;;;;;;;;;5074446;28;20182;-83
2023/01/21 14:52:44;;;;;;;36.25;19.77;;;;;;;;;;5081988;28;20040;-86
2023/01/21 14:55:27;;;;;;;33.95;17.92;;;;;;;;;;5078557;28;20047;-85
2023/01/21 14:57:54;;;;;;;25.02;14.20;;;;;;;;;;5082014;28;20031;-86